Terminal Aerodrome Forecast
Issued by NWS

Home | Current Version | Previous Version | Text Only | Print | Product List | Glossary Off
Versions: 1 2 3 4 5 6 7 8 9 10 11 12 13

000
FTUS43 KPAH 240500
TAFCGI
TAF
KCGI 240520Z 2406/2506 11005KT P6SM FEW150
     FM241600 17012G20KT P6SM SCT045 SCT120
     FM242200 18014G22KT P6SM VCTS BKN040CB OVC100
      TEMPO 2500/2504 3SM -TSRA BR OVC025CB
     FM250400 32010KT P6SM VCSH BKN050 OVC100=

USA.gov is the U.S. government's official web portal to all federal, state and local government web resources and services.